Avon, Connecticut
Current Conditions -  °F | °C
As of 7:53 PM on Thursday 30 Oct 2014 (Local Time) from KHFD Reporting Station
Clear Clear  
Wind Chill: 46°   Ceiling: Unl
Heat Index: 49°   Visibility: 10mi
Dew Point: 36°   Wind: 7mph
Humidity: 61%   Direction: 220°SW
Pressure: 29.99"   Gusts: NA
Location:  41.81°N, 72.83°W
Report Text: KHFD 302353Z AUTO 22006KT 10SM CLR 09/02 A2999 RMK AO2 SLP154 T00940022 10139 20094 51009
Loading
Personal Weather Stations






























Interactive Weather Map
Tropical Storm Tracking
New forecast layout! Learn more

10-Day Weather Forecast

Advertisements
Track Severe Weather on mobile